首页
METAR-TAF:

METAR-TAF

机场 :

门罗, 路易斯安那州, 美国

纬度: 32-30-42N, 经度: 092-01-53W, 海拔: 24米

当前天气观测

该预报发布于34分钟前的05:53 UTC
风速6节,风向西
温度 15°C
湿度 82%
气压 1009 hPa
能見度: 16.1公里
多云层高于7000英尺

METAR: KMLU 260553Z AUTO 26006KT 10SM BKN070 15/12 A2981 RMK AO2 SLP095 T01500122 10178 20150 402390150 51017

时间: 00:27 (06:27 UTC)

预报

该预报发布于45分钟前的05:42 UTC
预报有效从26日的 06点(UTC)到 27日的 06点(UTC)
风速5节,风向西南
能見度: 10公里
多云层高于7000英尺
阴天层高于9000英尺
从 26日的 0700点(UTC)
风速3节,风向多变
能見度: 10公里
散云层高于10000英尺
从 26日的 1100点(UTC)
风速3节,风向
能見度: 10公里
少量云层高于15000英尺
从 26日的 1700点(UTC)
风速4节,风向北转东北
能見度: 10公里
多云层高于10000英尺
从 27日的 0000点(UTC)
风速3节,风向东北
能見度: 10公里
多云层高于10000英尺

TAF: KMLU 260542Z 2606/2706 23005KT P6SM BKN070 OVC090 FM260700 VRB03KT P6SM SCT100 FM261100 35003KT P6SM FEW150 FM261700 02004KT P6SM BKN100 FM270000 05003KT P6SM BKN100

超过4000个机场的气象观测和天气预报(METAR&TAF报告)。

可查询的气象台以黄色和红色小点在地图上表示。

将鼠标移到小点上方,可查看气象台名称。

然后点击查看天气观测和预报。

如需切换地图:点击带黑十字的绿色按钮放大地图;点击带横线的绿色按钮缩小地图;或者点击绿色箭头查看邻近地区的地图。


METAR-TAF: